Terminal Aerodrome Forecast
Issued by NWS

Home | Current Version | Previous Version | Text Only | Print | Product List | Glossary On
Versions: 1 2 3 4 5 6 7 8 9 10 11 12 13
000
FTUS45 KGGW 060500
TAFSDY
TAF
KSDY 060520Z 0606/0706 12011KT P6SM SCT060
     FM060900 14009KT P6SM SCT070
     FM061200 VRB03KT P6SM VCSH OVC035
     FM062100 29007KT 6SM -SHRA OVC030
      AMD LTD TO CLD VIS AND WIND=

USA.gov is the U.S. government's official web portal to all federal, state and local government web resources and services.